Time;durP1;ratioP1;P1;durP2;ratioP2;P2;SDS_P1;SDS_P2;PMS_P1;PMS_P2;Temp;Humidity;BMP_temperature;BMP_pressure;BME280_temperature;BME280_humidity;BME280_pressure;Samples;Min_cycle;Max_cycle;Signal;HPM_P1;HPM_P2
2022/11/09 01:38:34;;;;;;;5.97;1.60;;;14.30;1.00;;;;;;6252550;22;20167;-87
2022/11/09 01:57:52;;;;;;;4.10;1.63;;;14.10;99.90;;;;;;6285638;22;20407;-86
2022/11/09 02:11:26;;;;;;;5.07;1.73;;;14.20;99.90;;;;;;6287729;22;20404;-87
2022/11/09 02:17:39;;;;;;;5.30;2.07;;;14.10;99.90;;;;;;6289357;22;20465;-87
2022/11/09 02:37:29;;;;;;;10.30;2.03;;;14.20;41.90;;;;;;6289912;22;20462;-88
2022/11/09 02:50:33;;;;;;;;;;;;;;;;;;;;;
2022/11/09 03:02:50;;;;;;;;;;;;;;;;;;;;;
2022/11/09 03:08:52;;;;;;;12.03;2.20;;;14.20;1.00;;;;;;6289022;22;20371;-87
2022/11/09 03:18:42;;;;;;;4.67;2.07;;;14.30;1.00;;;;;;6288233;22;20385;-87
2022/11/09 03:31:05;;;;;;;5.37;2.23;;;14.30;99.90;;;;;;6289831;22;20739;-86
2022/11/09 03:44:29;;;;;;;3.97;1.40;;;14.30;99.90;;;;;;6284482;22;20446;-87
2022/11/09 03:50:55;;;;;;;6.50;1.60;;;14.30;99.90;;;;;;6279603;22;20394;-88
2022/11/09 04:04:11;;;;;;;;;;;;;;;;;;;;;
2022/11/09 04:20:00;;;;;;;3.60;1.40;;;14.50;46.60;;;;;;6278577;22;20462;-87
2022/11/09 04:29:48;;;;;;;;;;;;;;;;;;;;;
2022/11/09 04:39:04;;;;;;;6.00;2.03;;;14.60;99.90;;;;;;6289634;22;20718;-87
2022/11/09 04:42:29;;;;;;;;;;;;;;;;;;;;;
2022/11/09 04:55:05;;;;;;;8.57;2.40;;;14.50;99.90;;;;;;6279407;22;20370;-87
2022/11/09 05:01:52;;;;;;;8.07;1.77;;;14.50;1.00;;;;;;6282409;22;20394;-87
2022/11/09 05:04:49;;;;;;;5.73;1.77;;;14.50;1.00;;;;;;6236874;22;20485;-87
2022/11/09 05:11:45;;;;;;;5.03;1.60;;;14.50;1.00;;;;;;6275367;22;20408;-87
2022/11/09 05:27:49;;;;;;;;;;;;;;;;;;;;;
2022/11/09 05:51:25;;;;;;;;;;;;;;;;;;;;;
2022/11/09 05:54:27;;;;;;;;;;;;;;;;;;;;;
2022/11/09 06:11:02;;;;;;;5.47;1.53;;;14.30;1.00;;;;;;6267281;22;20950;-87
2022/11/09 06:20:32;;;;;;;7.10;1.30;;;14.20;1.00;;;;;;6285037;22;20406;-87
2022/11/09 06:27:17;;;;;;;4.43;1.40;;;14.10;99.90;;;;;;6263314;22;20387;-87
2022/11/09 06:30:44;;;;;;;5.93;1.57;;;14.00;99.90;;;;;;6302932;22;20778;-85
2022/11/09 06:40:12;;;;;;;4.73;1.67;;;14.00;99.90;;;;;;6289512;22;20411;-85
2022/11/09 06:52:18;;;;;;;;;;;;;;;;;;;;;
2022/11/09 06:58:43;;;;;;;;;;;;;;;;;;;;;
2022/11/09 07:01:36;;;;;;;1.37;0.80;;;13.90;99.90;;;;;;6308160;22;20773;-85
2022/11/09 07:04:10;;;;;;;4.20;1.30;;;13.90;99.90;;;;;;6257838;22;20414;-85
2022/11/09 07:06:59;;;;;;;4.73;1.30;;;13.80;99.90;;;;;;6309597;22;20773;-85
2022/11/09 07:13:18;;;;;;;;;;;;;;;;;;;;;
2022/11/09 07:29:31;;;;;;;3.60;1.30;;;14.70;1.00;;;;;;6278783;22;20767;-85
2022/11/09 07:31:57;;;;;;;9.07;1.90;;;15.30;1.00;;;;;;6306990;22;20417;-85
2022/11/09 07:34:24;;;;;;;3.40;1.30;;;15.80;99.90;;;;;;6281685;22;20455;-85
2022/11/09 07:36:53;;;;;;;6.93;1.50;;;16.20;99.90;;;;;;6308148;22;20613;-86
2022/11/09 07:39:18;;;;;;;5.67;1.40;;;16.60;99.90;;;;;;6279409;22;20464;-86
2022/11/09 07:41:54;;;;;;;4.10;1.60;;;17.30;1.00;;;;;;6306009;22;20382;-86
2022/11/09 07:44:22;;;;;;;10.03;2.13;;;17.80;99.90;;;;;;6278897;22;20233;-85
2022/11/09 07:46:51;;;;;;;5.03;1.40;;;18.40;14.40;;;;;;6279599;22;20431;-85
2022/11/09 07:49:21;;;;;;;6.77;1.50;;;18.70;1.00;;;;;;6280192;22;20887;-86
2022/11/09 07:51:47;;;;;;;6.20;1.50;;;18.80;1.00;;;;;;6307805;22;20361;-86
2022/11/09 07:57:43;;;;;;;;;;;;;;;;;;;;;
2022/11/09 08:01:03;;;;;;;;;;;;;;;;;;;;;
2022/11/09 08:03:31;;;;;;;3.43;1.90;;;19.50;99.90;;;;;;6294164;22;20508;-85
2022/11/09 08:16:43;;;;;;;3.93;1.37;;;22.20;99.90;;;;;;6272452;22;20468;-86
2022/11/09 08:23:01;;;;;;;;;;;;;;;;;;;;;
2022/11/09 08:26:14;;;;;;;5.07;1.73;;;25.30;99.90;;;;;;6304105;22;20441;-86
2022/11/09 08:35:38;;;;;;;;;;;;;;;;;;;;;
2022/11/09 08:38:11;;;;;;;2.30;1.10;;;28.10;99.90;;;;;;6303943;22;20481;-86
2022/11/09 08:41:19;;;;;;;3.37;1.30;;;28.70;99.90;;;;;;6278309;22;20426;-86
2022/11/09 09:03:51;;;;;;;3.70;1.40;;;28.80;99.90;;;;;;6302343;22;20373;-86
2022/11/09 09:06:25;;;;;;;3.27;1.20;;;29.60;99.90;;;;;;6264476;22;20385;-86
2022/11/09 09:09:21;;;;;;;;;;;;;;;;;;;;;
2022/11/09 09:12:19;;;;;;;3.00;0.90;;;30.30;99.90;;;;;;6307364;22;20777;-86
2022/11/09 09:15:08;;;;;;;2.80;1.20;;;30.90;99.90;;;;;;6307285;22;20436;-86
2022/11/09 09:24:37;;;;;;;4.60;1.10;;;31.20;99.90;;;;;;6301244;22;20377;-85
2022/11/09 09:27:10;;;;;;;5.57;2.07;;;29.80;99.90;;;;;;6306438;22;20850;-86
2022/11/09 09:29:35;;;;;;;5.43;1.83;;;29.50;99.90;;;;;;6277536;22;20425;-86
2022/11/09 09:32:01;;;;;;;4.80;1.60;;;29.20;99.90;;;;;;6277715;22;20863;-86
2022/11/09 09:34:31;;;;;;;7.53;1.73;;;28.50;99.90;;;;;;6306566;22;20198;-87
2022/11/09 09:36:59;;;;;;;6.80;1.33;;;27.50;99.90;;;;;;6307715;22;20138;-85
2022/11/09 09:39:25;;;;;;;4.80;1.60;;;26.60;99.90;;;;;;6307806;22;20394;-85
2022/11/09 09:41:54;;;;;;;7.33;1.93;;;25.80;99.90;;;;;;6308247;22;20370;-85
2022/11/09 09:44:44;;;;;;;5.03;1.80;;;25.00;99.90;;;;;;6308153;22;20211;-85
2022/11/09 09:47:13;;;;;;;3.33;1.83;;;24.20;99.90;;;;;;6308271;22;20380;-85
2022/11/09 09:49:46;;;;;;;6.77;1.63;;;23.40;99.90;;;;;;6307242;22;20422;-85
2022/11/09 09:52:39;;;;;;;4.07;1.67;;;22.70;99.90;;;;;;6281633;22;20426;-85
2022/11/09 09:55:23;;;;;;;6.20;2.40;;;22.20;99.90;;;;;;6305499;22;20699;-85
2022/11/09 09:58:17;;;;;;;4.40;1.50;;;21.80;99.90;;;;;;6309591;22;20798;-86
2022/11/09 10:00:43;;;;;;;6.47;2.10;;;21.40;99.90;;;;;;6311401;22;20393;-85
2022/11/09 10:03:27;;;;;;;7.00;1.90;;;20.90;99.90;;;;;;6283873;22;20862;-85
2022/11/09 10:06:23;;;;;;;5.30;1.40;;;20.60;99.90;;;;;;6283487;22;20542;-85
2022/11/09 10:09:12;;;;;;;5.60;1.43;;;20.30;99.90;;;;;;6309786;22;20371;-85
2022/11/09 10:12:05;;;;;;;5.07;1.40;;;20.00;99.90;;;;;;6310318;22;20355;-85
2022/11/09 10:14:36;;;;;;;3.93;1.50;;;19.80;99.90;;;;;;6282956;22;20435;-85
2022/11/09 10:17:10;;;;;;;9.97;1.87;;;19.70;99.90;;;;;;6310996;22;20403;-86
2022/11/09 10:20:15;;;;;;;3.53;1.20;;;19.60;99.90;;;;;;6283442;22;20416;-85
2022/11/09 10:23:19;;;;;;;5.30;1.70;;;19.60;99.90;;;;;;6284665;22;20886;-85
2022/11/09 10:25:48;;;;;;;4.83;1.30;;;19.60;99.90;;;;;;6311033;22;20361;-85
2022/11/09 10:28:24;;;;;;;7.67;1.63;;;19.40;99.90;;;;;;6257458;22;20374;-85
2022/11/09 10:30:50;;;;;;;3.53;1.33;;;19.40;99.90;;;;;;6308604;22;20751;-85
2022/11/09 10:33:20;;;;;;;9.40;1.33;;;19.40;99.90;;;;;;6310523;22;20448;-85
2022/11/09 10:36:10;;;;;;;4.53;1.50;;;19.40;99.90;;;;;;6308938;22;20702;-85
2022/11/09 10:39:06;;;;;;;4.83;1.63;;;19.50;99.90;;;;;;6309394;22;20359;-85
2022/11/09 10:42:28;;;;;;;9.33;1.73;;;19.70;99.90;;;;;;6306816;22;20545;-84
2022/11/09 10:45:40;;;;;;;;;;;;;;;;;;;;;
2022/11/09 10:48:10;;;;;;;6.40;1.40;;;20.20;99.90;;;;;;6305986;22;20462;-86
2022/11/09 10:51:05;;;;;;;8.00;1.57;;;21.10;99.90;;;;;;6307362;22;20417;-86
2022/11/09 10:53:42;;;;;;;4.40;1.00;;;22.30;99.90;;;;;;6279591;22;20418;-86
2022/11/09 10:56:19;;;;;;;5.20;1.53;;;23.50;99.90;;;;;;6278924;22;20374;-87
2022/11/09 10:58:54;;;;;;;6.30;1.43;;;24.50;99.90;;;;;;6305575;22;20455;-85
2022/11/09 11:01:34;;;;;;;5.17;1.23;;;25.10;99.90;;;;;;6305701;22;20358;-85
2022/11/09 11:04:43;;;;;;;7.30;1.80;;;25.40;99.90;;;;;;6305933;22;20396;-86
2022/11/09 11:07:28;;;;;;;3.00;1.37;;;25.80;99.90;;;;;;6277975;22;20427;-85
2022/11/09 11:10:07;;;;;;;4.37;1.70;;;26.30;99.90;;;;;;6304029;22;20401;-85
2022/11/09 11:12:33;;;;;;;4.73;1.40;;;26.60;99.90;;;;;;6279627;22;20386;-85
2022/11/09 11:15:01;;;;;;;5.43;1.30;;;26.90;99.90;;;;;;6303978;22;20421;-85
2022/11/09 11:17:35;;;;;;;6.10;1.27;;;27.20;99.90;;;;;;6305269;22;20589;-86
2022/11/09 11:20:22;;;;;;;6.23;1.63;;;27.10;99.90;;;;;;6303548;22;20390;-85
2022/11/09 11:23:14;;;;;;;;;;;;;;;;;;;;;
2022/11/09 11:25:54;;;;;;;6.27;1.40;;;26.20;99.90;;;;;;6305785;22;20445;-86
2022/11/09 11:28:39;;;;;;;3.23;1.40;;;26.20;99.90;;;;;;6305625;22;20386;-85
2022/11/09 11:31:14;;;;;;;3.27;1.50;;;26.00;99.90;;;;;;6282495;22;20409;-85
2022/11/09 11:33:49;;;;;;;8.70;1.60;;;25.80;99.90;;;;;;6282204;22;20822;-85
2022/11/09 11:36:42;;;;;;;5.03;1.70;;;25.60;99.90;;;;;;6277382;22;20396;-87
2022/11/09 11:39:48;;;;;;;6.83;1.87;;;25.80;99.90;;;;;;6304904;22;20390;-86
2022/11/09 11:42:32;;;;;;;4.93;1.33;;;26.10;99.90;;;;;;6278029;22;21118;-87
2022/11/09 11:45:24;;;;;;;5.40;1.60;;;26.00;99.90;;;;;;6279166;22;20386;-87
2022/11/09 11:48:00;;;;;;;6.20;1.37;;;25.40;99.90;;;;;;6305745;22;20370;-87
2022/11/09 11:50:47;;;;;;;8.00;1.57;;;25.40;99.90;;;;;;6303595;22;20457;-87
2022/11/09 11:53:30;;;;;;;10.33;1.80;;;24.70;99.90;;;;;;6277970;22;20428;-87
2022/11/09 11:56:11;;;;;;;5.73;1.60;;;24.10;99.90;;;;;;6277354;22;20382;-87
2022/11/09 11:58:54;;;;;;;3.00;1.37;;;23.60;99.90;;;;;;6305637;22;20372;-86
2022/11/09 12:01:53;;;;;;;7.50;1.60;;;22.80;99.90;;;;;;6305602;22;20363;-87
2022/11/09 12:04:36;;;;;;;6.83;1.60;;;22.60;99.90;;;;;;6278378;22;20474;-86
2022/11/09 12:07:22;;;;;;;6.60;1.50;;;22.30;99.90;;;;;;6304223;22;20438;-87
2022/11/09 12:10:20;;;;;;;6.20;1.20;;;21.80;99.90;;;;;;6277985;22;20764;-86
2022/11/09 12:13:10;;;;;;;5.10;1.30;;;21.70;99.90;;;;;;6278622;22;20387;-86
2022/11/09 12:15:41;;;;;;;8.13;2.20;;;21.60;99.90;;;;;;6309480;22;20743;-86
2022/11/09 12:18:20;;;;;;;6.73;1.60;;;21.60;99.90;;;;;;6279521;22;20717;-87
2022/11/09 12:21:30;;;;;;;6.93;1.70;;;21.70;99.90;;;;;;6279600;22;20409;-86
2022/11/09 12:24:31;;;;;;;;;;;;;;;;;;;;;
2022/11/09 12:27:40;;;;;;;;;;;;;;;;;;;;;
2022/11/09 12:33:55;;;;;;;9.53;2.97;;;20.40;99.90;;;;;;6308157;22;20490;-87
2022/11/09 12:36:55;;;;;;;;;;;;;;;;;;;;;
2022/11/09 12:40:24;;;;;;;5.70;1.90;;;19.40;99.90;;;;;;6297168;22;20487;-86
2022/11/09 12:43:21;;;;;;;9.87;2.00;;;19.30;99.90;;;;;;6183302;22;20495;-86
2022/11/09 12:52:39;;;;;;;8.23;1.83;;;21.80;99.90;;;;;;6301050;22;20381;-85
2022/11/09 12:55:13;;;;;;;3.70;1.40;;;22.60;99.90;;;;;;6305364;22;20461;-85
2022/11/09 13:07:48;;;;;;;7.20;1.63;;;22.30;99.90;;;;;;6290747;22;20392;-84
2022/11/09 13:10:31;;;;;;;5.57;1.53;;;21.60;99.90;;;;;;6265769;22;20550;-84
2022/11/09 13:13:13;;;;;;;7.33;2.20;;;21.00;99.90;;;;;;6307638;22;20359;-84
2022/11/09 13:16:02;;;;;;;5.93;1.43;;;20.40;99.90;;;;;;6280112;22;20440;-84
2022/11/09 13:18:30;;;;;;;6.43;1.60;;;19.90;99.90;;;;;;6306887;22;21144;-85
2022/11/09 13:21:18;;;;;;;7.30;2.20;;;19.90;99.90;;;;;;6306407;22;20381;-84
2022/11/09 13:23:50;;;;;;;3.77;1.33;;;20.60;99.90;;;;;;6308139;22;20388;-82
2022/11/09 13:26:31;;;;;;;4.37;1.60;;;20.70;99.90;;;;;;6309078;22;20409;-82
2022/11/09 13:29:17;;;;;;;7.53;1.90;;;20.60;99.90;;;;;;6307291;22;20352;-84
2022/11/09 13:32:01;;;;;;;5.20;1.80;;;20.10;99.90;;;;;;6306826;22;20354;-84
2022/11/09 13:34:48;;;;;;;6.37;1.73;;;19.80;99.90;;;;;;6281045;22;20512;-84
2022/11/09 13:37:46;;;;;;;5.47;1.70;;;19.70;99.90;;;;;;6307127;22;20406;-85
2022/11/09 13:40:30;;;;;;;4.00;1.47;;;19.80;99.90;;;;;;6308548;22;20887;-84
2022/11/09 13:43:13;;;;;;;9.50;2.30;;;19.60;99.90;;;;;;6309574;22;20371;-84
2022/11/09 13:45:51;;;;;;;7.80;1.60;;;19.50;99.90;;;;;;6309868;22;20419;-85
2022/11/09 13:48:28;;;;;;;5.20;2.27;;;19.30;99.90;;;;;;6308960;22;20396;-84
2022/11/09 13:50:55;;;;;;;9.57;1.53;;;19.20;99.90;;;;;;6310942;22;20389;-84
2022/11/09 13:53:36;;;;;;;5.23;1.60;;;18.90;99.90;;;;;;6284278;22;20473;-84
2022/11/09 13:56:31;;;;;;;10.17;2.10;;;18.80;99.90;;;;;;6312113;22;20372;-85
2022/11/09 13:59:32;;;;;;;3.70;1.30;;;18.60;99.90;;;;;;6284770;22;20435;-84
2022/11/09 14:01:59;;;;;;;7.60;1.70;;;18.60;99.90;;;;;;6312330;22;20362;-85
2022/11/09 14:04:27;;;;;;;5.30;1.47;;;18.70;99.90;;;;;;6309658;22;20377;-84
2022/11/09 14:07:10;;;;;;;8.10;1.80;;;18.70;99.90;;;;;;6311638;22;20693;-84
2022/11/09 14:09:49;;;;;;;6.70;2.30;;;18.50;99.90;;;;;;6312649;22;20435;-85
2022/11/09 14:12:30;;;;;;;5.53;1.77;;;18.30;99.90;;;;;;6314383;22;20455;-85
2022/11/09 14:14:56;;;;;;;5.60;1.50;;;18.10;99.90;;;;;;6313105;22;20413;-84
2022/11/09 14:17:59;;;;;;;7.67;1.80;;;18.00;99.90;;;;;;6286693;22;20380;-84
2022/11/09 14:20:41;;;;;;;7.63;1.63;;;17.70;99.90;;;;;;6313594;22;20171;-84
2022/11/09 14:23:33;;;;;;;5.50;1.50;;;17.60;99.90;;;;;;6286195;22;20387;-84
2022/11/09 14:26:07;;;;;;;4.33;1.30;;;17.60;99.90;;;;;;6254722;22;20392;-84
2022/11/09 14:28:34;;;;;;;11.00;1.80;;;17.60;99.90;;;;;;6313530;22;20684;-84
2022/11/09 14:31:00;;;;;;;5.97;2.10;;;17.50;99.90;;;;;;6313560;22;20392;-84
2022/11/09 14:33:33;;;;;;;4.80;1.83;;;17.60;99.90;;;;;;6286793;22;20447;-84
2022/11/09 14:36:01;;;;;;;11.80;1.80;;;17.70;99.90;;;;;;6312417;22;20357;-84
2022/11/09 14:38:30;;;;;;;8.43;2.27;;;17.90;99.90;;;;;;6311214;22;20382;-84
2022/11/09 14:40:55;;;;;;;5.73;1.70;;;18.10;99.90;;;;;;6311752;22;20404;-84
2022/11/09 14:43:24;;;;;;;4.67;1.40;;;18.30;99.90;;;;;;6310494;22;20445;-84
2022/11/09 14:46:00;;;;;;;3.70;1.60;;;18.30;99.90;;;;;;6311838;22;20225;-84
2022/11/09 14:48:32;;;;;;;5.77;1.40;;;18.50;99.90;;;;;;6311405;22;20390;-84
2022/11/09 14:51:02;;;;;;;4.27;1.60;;;18.50;99.90;;;;;;6312898;22;20450;-84
2022/11/09 14:53:35;;;;;;;5.03;1.80;;;18.30;99.90;;;;;;6311868;22;20429;-84
2022/11/09 14:56:08;;;;;;;4.20;1.60;;;18.00;99.90;;;;;;6282485;22;20938;-84
2022/11/09 14:58:37;;;;;;;7.90;1.93;;;17.80;99.90;;;;;;6311733;22;20383;-84
2022/11/09 15:01:22;;;;;;;4.27;1.47;;;17.50;99.90;;;;;;6310740;22;20398;-85
2022/11/09 15:04:21;;;;;;;3.43;1.33;;;17.30;99.90;;;;;;6285238;22;20380;-84
2022/11/09 15:06:53;;;;;;;4.70;1.50;;;17.30;99.90;;;;;;6284993;22;20384;-84
2022/11/09 15:09:28;;;;;;;7.40;1.40;;;17.20;99.90;;;;;;6285403;22;20397;-84
2022/11/09 15:11:56;;;;;;;7.43;1.90;;;17.10;99.90;;;;;;6311511;22;20370;-84
2022/11/09 15:14:30;;;;;;;8.67;1.77;;;17.00;99.90;;;;;;6310501;22;20424;-85
2022/11/09 15:17:17;;;;;;;9.03;1.57;;;16.90;99.90;;;;;;6282693;22;20777;-84
2022/11/09 15:19:52;;;;;;;16.23;1.97;;;16.80;99.90;;;;;;6285004;22;20404;-84
2022/11/09 15:22:43;;;;;;;5.30;1.70;;;16.80;99.90;;;;;;6283212;22;20414;-84
2022/11/09 15:25:26;;;;;;;7.40;1.90;;;16.80;99.90;;;;;;6284060;22;20378;-84
2022/11/09 15:28:17;;;;;;;5.53;1.40;;;16.80;99.90;;;;;;6310152;22;20380;-84
2022/11/09 15:30:47;;;;;;;5.17;1.70;;;16.70;99.90;;;;;;6292542;22;20420;-84
2022/11/09 15:33:28;;;;;;;3.00;1.43;;;16.60;99.90;;;;;;6311074;22;20509;-83
2022/11/09 15:35:54;;;;;;;5.20;1.83;;;16.50;99.90;;;;;;6313033;22;20363;-84
2022/11/09 15:38:35;;;;;;;5.23;1.73;;;16.40;99.90;;;;;;6314206;22;20453;-84
2022/11/09 15:41:05;;;;;;;5.33;2.07;;;16.30;99.90;;;;;;6285108;22;20201;-85
2022/11/09 15:43:30;;;;;;;4.47;1.57;;;16.20;99.90;;;;;;6310775;22;20448;-85
2022/11/09 15:45:59;;;;;;;3.40;1.90;;;16.10;99.90;;;;;;6285787;22;20394;-84
2022/11/09 15:48:24;;;;;;;6.63;1.67;;;16.00;99.90;;;;;;6284925;22;20233;-85
2022/11/09 15:50:51;;;;;;;5.60;1.93;;;15.90;99.90;;;;;;6286340;22;20413;-84
2022/11/09 15:53:16;;;;;;;6.83;1.80;;;15.80;99.90;;;;;;6313114;22;20186;-84
2022/11/09 15:55:42;;;;;;;7.00;2.33;;;15.60;99.90;;;;;;6287007;22;20804;-85
2022/11/09 15:58:16;;;;;;;5.77;1.53;;;15.50;99.90;;;;;;6314733;22;20624;-87
2022/11/09 16:00:42;;;;;;;10.20;2.23;;;15.40;99.90;;;;;;6279525;22;20224;-84
2022/11/09 16:03:08;;;;;;;6.40;2.20;;;15.30;99.90;;;;;;6314494;22;20378;-84
2022/11/09 16:05:34;;;;;;;10.10;2.40;;;15.20;99.90;;;;;;6312887;22;20366;-84
2022/11/09 16:07:59;;;;;;;6.03;2.30;;;15.10;99.90;;;;;;6310923;22;20384;-85
2022/11/09 16:10:29;;;;;;;7.53;2.10;;;15.10;99.90;;;;;;6311104;22;20652;-84
2022/11/09 16:12:55;;;;;;;6.87;1.83;;;15.00;99.90;;;;;;6283716;22;20637;-84
2022/11/09 16:15:29;;;;;;;6.40;1.93;;;14.90;99.90;;;;;;6285316;22;20422;-86
2022/11/09 16:17:55;;;;;;;10.73;2.50;;;14.80;99.90;;;;;;6286226;22;20373;-84
2022/11/09 16:20:21;;;;;;;7.67;2.00;;;14.80;99.90;;;;;;6311166;22;20408;-84
2022/11/09 16:22:47;;;;;;;8.23;2.20;;;14.70;99.90;;;;;;6286102;22;20533;-85
2022/11/09 16:25:13;;;;;;;8.53;2.40;;;14.70;99.90;;;;;;6319732;22;20462;-84
2022/11/09 16:27:42;;;;;;;12.83;2.43;;;14.70;99.90;;;;;;6296251;22;20396;-84
2022/11/09 16:30:09;;;;;;;8.00;2.10;;;14.60;99.90;;;;;;6284855;22;20898;-84
2022/11/09 16:32:41;;;;;;;3.23;1.43;;;14.60;99.90;;;;;;6309976;22;20378;-84
2022/11/09 16:35:07;;;;;;;7.73;2.17;;;14.60;99.90;;;;;;6312730;22;20433;-85
2022/11/09 16:37:38;;;;;;;6.10;2.57;;;14.60;99.90;;;;;;6282662;22;20454;-85
2022/11/09 16:40:12;;;;;;;7.10;1.83;;;14.60;99.90;;;;;;6311456;22;20434;-85
2022/11/09 16:48:57;;;;;;;;;;;;;;;;;;;;;
2022/11/09 16:51:55;;;;;;;5.10;1.60;;;14.60;99.90;;;;;;6311443;22;20401;-84
2022/11/09 16:54:20;;;;;;;5.67;2.03;;;14.60;99.90;;;;;;6283466;22;20913;-83
2022/11/09 16:56:49;;;;;;;7.57;2.20;;;14.60;1.00;;;;;;6311909;22;20388;-84
2022/11/09 16:59:15;;;;;;;6.83;2.43;;;14.60;1.00;;;;;;6282260;22;20174;-84
2022/11/09 17:01:40;;;;;;;8.27;1.67;;;14.60;1.00;;;;;;6312519;22;20453;-84
2022/11/09 17:04:06;;;;;;;5.80;2.23;;;14.60;1.00;;;;;;6311195;22;20212;-84
2022/11/09 17:06:34;;;;;;;5.10;2.10;;;14.50;1.00;;;;;;6311297;22;20161;-84
2022/11/09 17:09:02;;;;;;;4.00;1.77;;;14.40;99.90;;;;;;6311629;22;20156;-84
2022/11/09 17:11:33;;;;;;;4.87;1.63;;;14.20;99.90;;;;;;6284209;22;20433;-84
2022/11/09 17:14:09;;;;;;;;;;;;;;;;;;;;;
2022/11/09 17:16:40;;;;;;;4.10;1.73;;;14.00;1.00;;;;;;6310721;22;20443;-83
2022/11/09 17:19:13;;;;;;;3.43;1.47;;;13.90;1.00;;;;;;6284045;22;20389;-84
2022/11/09 17:21:39;;;;;;;5.10;1.80;;;13.80;25.90;;;;;;6311823;22;20364;-84
2022/11/09 17:24:05;;;;;;;8.20;1.90;;;13.80;55.80;;;;;;6310676;22;20701;-85
2022/11/09 17:26:31;;;;;;;12.27;2.30;;;13.70;99.90;;;;;;6280886;22;20157;-84
2022/11/09 17:28:56;;;;;;;5.10;2.20;;;13.60;99.90;;;;;;6309426;22;20414;-85
2022/11/09 17:31:23;;;;;;;6.27;1.90;;;13.50;1.00;;;;;;6282477;22;20397;-85
2022/11/09 17:33:48;;;;;;;4.43;1.87;;;13.40;1.00;;;;;;6312189;22;20208;-85
2022/11/09 17:36:16;;;;;;;2.90;1.63;;;13.40;1.00;;;;;;6313205;22;20380;-85
2022/11/09 17:38:42;;;;;;;5.17;1.90;;;13.30;1.00;;;;;;6313910;22;20481;-86
2022/11/09 17:41:31;;;;;;;4.30;2.00;;;13.30;1.00;;;;;;6313024;22;20393;-85
2022/11/09 17:44:00;;;;;;;6.47;2.20;;;13.20;1.00;;;;;;6293176;22;20162;-85
2022/11/09 17:46:25;;;;;;;2.30;1.53;;;13.10;1.00;;;;;;6312409;22;20448;-86
2022/11/09 17:48:51;;;;;;;7.30;2.43;;;13.10;1.00;;;;;;6312370;22;20382;-85
2022/11/09 17:51:18;;;;;;;4.93;2.70;;;13.10;1.00;;;;;;6315407;22;20221;-84
2022/11/09 17:54:09;;;;;;;3.47;2.22;;;13.00;1.00;;;;;;6308534;22;20408;-87
2022/11/09 17:56:59;;;;;;;7.33;2.87;;;13.10;99.90;;;;;;6279726;22;20155;-86
2022/11/09 18:13:57;;;;;;;;;;;;;;;;;;;;;
2022/11/09 18:17:27;;;;;;;;;;;;;;;;;;;;;
2022/11/09 18:24:06;;;;;;;;;;;;;;;;;;;;;
2022/11/09 19:17:43;;;;;;;10.27;3.27;;;12.40;1.00;;;;;;5930634;23;20406;-85
2022/11/09 19:23:56;;;;;;;9.83;3.23;;;12.30;1.00;;;;;;6098333;23;20733;-86
2022/11/09 19:27:01;;;;;;;;;;;;;;;;;;;;;
2022/11/09 19:32:18;;;;;;;8.20;3.83;;;12.30;1.00;;;;;;6292770;22;20413;-85
2022/11/09 19:37:52;;;;;;;6.50;3.00;;;12.20;1.00;;;;;;6282772;22;20190;-86
2022/11/09 19:40:34;;;;;;;4.70;2.93;;;12.20;1.00;;;;;;6279570;22;20395;-86
2022/11/09 19:45:54;;;;;;;8.10;2.87;;;12.20;1.00;;;;;;6261604;22;20383;-86
2022/11/09 19:48:32;;;;;;;;;;;;;;;;;;;;;
2022/11/09 19:51:03;;;;;;;6.73;2.43;;;12.10;44.70;;;;;;6277256;22;20485;-86
2022/11/09 19:53:34;;;;;;;8.30;2.77;;;12.10;91.30;;;;;;6250212;22;20427;-86
2022/11/09 20:16:16;;;;;;;8.63;2.10;;;12.00;1.00;;;;;;6231145;23;20486;-86
2022/11/09 20:19:26;;;;;;;8.30;2.63;;;12.00;1.00;;;;;;6205547;23;20453;-86
2022/11/09 20:22:53;;;;;;;;;;;;;;;;;;;;;
2022/11/09 20:47:43;;;;;;;;;;;;;;;;;;;;;
2022/11/09 20:50:41;;;;;;;8.70;2.50;;;12.20;71.80;;;;;;6079703;23;20499;-85
2022/11/09 20:54:00;;;;;;;6.47;2.10;;;12.20;99.90;;;;;;6090768;23;20432;-86
2022/11/09 20:56:49;;;;;;;12.50;2.60;;;12.20;99.90;;;;;;6241293;23;20403;-84
2022/11/09 21:06:38;;;;;;;;;;;;;;;;;;;;;
2022/11/09 21:16:12;;;;;;;9.17;2.57;;;12.10;99.90;;;;;;6185647;23;20398;-85
2022/11/09 21:19:06;;;;;;;9.53;2.60;;;12.10;1.00;;;;;;6165829;23;20940;-86
2022/11/09 21:35:53;;;;;;;;;;;;;;;;;;;;;
2022/11/09 21:41:38;;;;;;;6.63;2.63;;;11.90;99.90;;;;;;6189276;23;20474;-86
2022/11/09 22:21:44;;;;;;;;;;;;;;;;;;;;;
2022/11/09 22:25:22;;;;;;;;;;;;;;;;;;;;;
2022/11/09 22:31:13;;;;;;;;;;;;;;;;;;;;;
2022/11/09 22:37:36;;;;;;;6.07;2.30;;;11.80;99.90;;;;;;6213039;23;21042;-86
2022/11/09 22:40:22;;;;;;;;;;;;;;;;;;;;;
2022/11/09 22:43:05;;;;;;;9.43;2.77;;;11.80;99.90;;;;;;6244369;23;20480;-86
2022/11/09 22:45:51;;;;;;;7.87;2.63;;;11.80;99.90;;;;;;6217046;23;20400;-87
2022/11/09 22:48:35;;;;;;;7.00;2.67;;;11.80;99.90;;;;;;6217615;23;20398;-87
2022/11/09 22:58:51;;;;;;;;;;;;;;;;;;;;;
